createdAt,value
2018-07-28T00:00:10.169Z,6.90
2018-07-28T00:02:39.449Z,8.40
2018-07-28T00:05:09.563Z,6.70
2018-07-28T00:07:38.884Z,12.53
2018-07-28T00:10:10.406Z,12.73
2018-07-28T00:12:39.661Z,6.83
2018-07-28T00:15:09.976Z,6.93
2018-07-28T00:17:39.761Z,9.30
2018-07-28T00:20:10.519Z,15.20
2018-07-28T00:22:39.898Z,5.93
2018-07-28T00:25:10.817Z,6.97
2018-07-28T00:27:40.461Z,12.63
2018-07-28T00:30:14.144Z,9.80
2018-07-28T00:32:43.405Z,14.53
2018-07-28T00:35:12.732Z,5.97
2018-07-28T00:37:42.068Z,5.50
2018-07-28T00:40:11.404Z,8.63
2018-07-28T00:42:40.815Z,12.57
2018-07-28T00:45:10.080Z,5.10
2018-07-28T00:47:39.443Z,7.90
2018-07-28T00:50:09.337Z,6.53
2018-07-28T00:52:38.775Z,6.57
2018-07-28T00:55:08.236Z,7.97
2018-07-28T00:57:37.573Z,8.87
2018-07-28T01:00:07.828Z,5.40
2018-07-28T01:02:37.096Z,6.00
2018-07-28T01:05:06.670Z,5.67
2018-07-28T01:07:35.915Z,7.93
2018-07-28T01:10:05.680Z,7.10
2018-07-28T01:12:35.013Z,6.07
2018-07-28T01:15:05.346Z,5.03
2018-07-28T01:17:34.707Z,10.20
2018-07-28T01:20:04.393Z,6.63
2018-07-28T01:22:33.636Z,5.47
2018-07-28T01:25:03.026Z,4.80
2018-07-28T01:27:32.438Z,6.73
2018-07-28T01:30:01.747Z,4.97
2018-07-28T01:32:31.123Z,8.23
2018-07-28T01:35:00.399Z,5.93
2018-07-28T01:37:29.757Z,4.90
2018-07-28T01:39:59.083Z,8.63
2018-07-28T01:42:28.475Z,14.00
2018-07-28T01:44:57.778Z,12.17
2018-07-28T01:47:27.183Z,6.50
2018-07-28T01:49:56.471Z,8.00
2018-07-28T01:52:25.843Z,3.73
2018-07-28T01:54:55.278Z,4.53
2018-07-28T01:57:24.667Z,14.90
2018-07-28T01:59:54.080Z,5.60
2018-07-28T02:02:23.386Z,5.90
2018-07-28T02:04:52.786Z,7.47
2018-07-28T02:07:22.157Z,9.53
2018-07-28T02:09:51.484Z,7.87
2018-07-28T02:12:21.017Z,4.60
2018-07-28T02:14:50.369Z,12.03
2018-07-28T02:17:19.754Z,13.60
2018-07-28T02:19:49.102Z,8.43
2018-07-28T02:22:18.373Z,8.17
2018-07-28T02:24:47.776Z,4.43
2018-07-28T02:27:17.144Z,10.10
2018-07-28T02:29:46.443Z,5.40
2018-07-28T02:32:15.779Z,4.80
2018-07-28T02:34:45.149Z,6.27
2018-07-28T02:37:14.597Z,5.07
2018-07-28T02:39:43.837Z,6.13
2018-07-28T02:42:13.162Z,8.03
2018-07-28T02:44:42.455Z,7.60
2018-07-28T02:47:11.684Z,5.00
2018-07-28T02:49:41.002Z,6.50
2018-07-28T02:52:10.371Z,4.90
2018-07-28T02:54:39.601Z,4.37
2018-07-28T02:57:08.918Z,11.23
2018-07-28T02:59:38.178Z,9.10
2018-07-28T03:02:07.563Z,5.20
2018-07-28T03:04:36.780Z,8.63
2018-07-28T03:07:06.635Z,10.40
2018-07-28T03:09:36.928Z,4.87
2018-07-28T03:12:06.442Z,12.13
2018-07-28T03:14:35.747Z,4.67
2018-07-28T03:17:05.228Z,7.47
2018-07-28T03:19:34.496Z,6.10
2018-07-28T03:22:03.920Z,8.47
2018-07-28T03:24:33.224Z,4.93
2018-07-28T03:27:02.478Z,6.33
2018-07-28T03:29:31.876Z,6.83
2018-07-28T03:32:01.136Z,4.87
2018-07-28T03:34:30.472Z,6.30
2018-07-28T03:36:59.719Z,4.30
2018-07-28T03:39:29.075Z,9.07
2018-07-28T03:41:58.376Z,6.00
2018-07-28T03:44:28.564Z,4.60
2018-07-28T03:46:58.943Z,7.30
2018-07-28T03:49:28.189Z,6.30
2018-07-28T03:51:57.509Z,9.07
2018-07-28T03:54:26.796Z,7.83
2018-07-28T03:56:56.056Z,6.90
2018-07-28T03:59:26.608Z,13.40
2018-07-28T04:01:55.932Z,5.40
2018-07-28T04:04:25.260Z,5.73
2018-07-28T04:06:54.564Z,6.30
2018-07-28T04:09:23.825Z,5.63
2018-07-28T04:11:53.126Z,7.57
2018-07-28T04:14:22.570Z,9.03
2018-07-28T04:16:51.895Z,7.30
2018-07-28T04:19:21.216Z,4.83
2018-07-28T04:21:50.542Z,7.17
2018-07-28T04:24:19.897Z,9.97
2018-07-28T04:26:49.212Z,7.53
2018-07-28T04:29:18.587Z,6.27
2018-07-28T04:31:47.916Z,5.80
2018-07-28T04:34:17.227Z,8.80
2018-07-28T04:36:46.488Z,5.57
2018-07-28T04:39:17.034Z,7.20
2018-07-28T04:41:46.352Z,6.33
2018-07-28T04:44:15.620Z,6.60
2018-07-28T04:46:44.928Z,5.13
2018-07-28T04:49:14.185Z,5.43
2018-07-28T04:51:43.565Z,5.50
2018-07-28T04:54:12.881Z,13.93
2018-07-28T04:56:42.205Z,5.83
2018-07-28T04:59:11.465Z,5.57
2018-07-28T05:01:40.712Z,6.23
2018-07-28T05:04:10.073Z,6.93
2018-07-28T05:06:39.456Z,7.30
2018-07-28T05:09:10.310Z,5.50
2018-07-28T05:11:39.639Z,9.33
2018-07-28T05:14:08.969Z,14.27
2018-07-28T05:16:38.457Z,6.70
2018-07-28T05:19:07.705Z,5.83
2018-07-28T05:21:36.968Z,7.53
2018-07-28T05:24:06.661Z,9.07
2018-07-28T05:26:36.176Z,7.40
2018-07-28T05:29:05.869Z,5.77
2018-07-28T05:31:35.148Z,10.73
2018-07-28T05:34:04.457Z,6.10
2018-07-28T05:36:33.768Z,7.67
2018-07-28T05:39:03.228Z,5.20
2018-07-28T05:41:32.558Z,10.63
2018-07-28T05:44:01.993Z,9.33
2018-07-28T05:46:31.353Z,5.13
2018-07-28T05:49:00.657Z,5.97
2018-07-28T05:51:30.783Z,5.33
2018-07-28T05:54:00.177Z,4.80
2018-07-28T05:56:29.684Z,6.30
2018-07-28T05:58:59.675Z,7.27
2018-07-28T06:01:29.726Z,12.17
2018-07-28T06:03:59.383Z,6.13
2018-07-28T06:06:28.720Z,5.00
2018-07-28T06:08:58.130Z,6.00
2018-07-28T06:11:27.430Z,6.90
2018-07-28T06:13:56.776Z,4.63
2018-07-28T06:16:26.324Z,6.80
2018-07-28T06:18:55.732Z,5.30
2018-07-28T06:21:25.195Z,6.07
2018-07-28T06:23:54.609Z,4.80
2018-07-28T06:26:23.993Z,6.83
2018-07-28T06:28:53.500Z,8.87
2018-07-28T06:31:24.948Z,5.27
2018-07-28T06:33:54.545Z,5.43
2018-07-28T06:36:24.068Z,8.63
2018-07-28T06:38:53.650Z,6.33
2018-07-28T06:41:23.089Z,7.97
2018-07-28T06:43:52.421Z,9.30
2018-07-28T06:46:21.937Z,5.97
2018-07-28T06:48:51.588Z,7.10
2018-07-28T06:51:21.079Z,5.80
2018-07-28T06:53:50.657Z,5.53
2018-07-28T06:56:20.010Z,9.03
2018-07-28T06:58:49.367Z,5.93
2018-07-28T07:01:19.108Z,12.80
2018-07-28T07:03:48.847Z,5.30
2018-07-28T07:06:18.288Z,5.20
2018-07-28T07:08:47.725Z,4.77
2018-07-28T07:11:17.092Z,6.73
2018-07-28T07:13:46.426Z,5.00
2018-07-28T07:16:15.805Z,5.83
2018-07-28T07:18:45.143Z,4.53
2018-07-28T07:21:14.781Z,6.60
2018-07-28T07:23:44.330Z,4.90
2018-07-28T07:26:13.692Z,6.20
2018-07-28T07:28:43.173Z,8.23
2018-07-28T07:31:12.588Z,5.30
2018-07-28T07:33:42.163Z,5.10
2018-07-28T07:36:11.827Z,7.47
2018-07-28T07:38:41.200Z,5.10
2018-07-28T07:41:10.782Z,5.57
2018-07-28T07:43:40.417Z,5.40
2018-07-28T07:46:10.331Z,5.80
2018-07-28T07:48:39.833Z,10.63
2018-07-28T07:51:09.332Z,5.93
2018-07-28T07:53:38.663Z,17.10
2018-07-28T07:56:08.209Z,4.90
2018-07-28T07:58:37.573Z,5.77
2018-07-28T08:01:09.061Z,10.53
2018-07-28T08:03:38.607Z,7.17
2018-07-28T08:06:08.019Z,5.70
2018-07-28T08:08:37.452Z,11.03
2018-07-28T08:11:07.958Z,4.73
2018-07-28T08:13:37.435Z,6.30
2018-07-28T08:16:07.012Z,5.30
2018-07-28T08:18:36.674Z,7.03
2018-07-28T08:21:06.417Z,7.10
2018-07-28T08:23:35.795Z,5.60
2018-07-28T08:26:05.495Z,8.80
2018-07-28T08:28:34.900Z,4.93
2018-07-28T08:31:04.288Z,4.30
2018-07-28T08:33:34.141Z,8.77
2018-07-28T08:36:03.577Z,6.93
2018-07-28T08:38:33.300Z,6.03
2018-07-28T08:41:02.610Z,9.03
2018-07-28T08:43:32.000Z,6.10
2018-07-28T08:46:01.502Z,6.07
2018-07-28T08:48:30.948Z,6.60
2018-07-28T08:51:00.689Z,7.30
2018-07-28T08:53:30.060Z,6.33
2018-07-28T08:55:59.655Z,6.13
2018-07-28T08:58:29.090Z,5.47
2018-07-28T09:00:58.540Z,6.97
2018-07-28T09:03:27.870Z,16.03
2018-07-28T09:05:57.358Z,11.37
2018-07-28T09:08:26.722Z,20.00
2018-07-28T09:10:57.132Z,7.60
2018-07-28T09:13:26.797Z,8.03
2018-07-28T09:15:56.209Z,7.03
2018-07-28T09:18:25.760Z,8.20
2018-07-28T09:20:55.402Z,14.83
2018-07-28T09:23:24.865Z,7.27
2018-07-28T09:25:54.170Z,18.13
2018-07-28T09:28:23.517Z,7.10
2018-07-28T09:30:52.987Z,14.93
2018-07-28T09:33:22.456Z,10.00
2018-07-28T09:35:51.790Z,13.60
2018-07-28T09:38:27.473Z,4.57
2018-07-28T09:40:56.834Z,11.67
2018-07-28T09:43:27.274Z,10.30
2018-07-28T09:45:56.663Z,6.97
2018-07-28T09:48:26.061Z,18.27
2018-07-28T09:50:55.381Z,17.60
2018-07-28T09:53:24.781Z,8.47
2018-07-28T09:55:54.200Z,9.07
2018-07-28T09:58:23.534Z,8.53
2018-07-28T10:00:58.387Z,6.53
2018-07-28T10:03:28.725Z,9.73
2018-07-28T10:05:58.251Z,7.87
2018-07-28T10:08:27.696Z,9.03
2018-07-28T10:10:57.113Z,6.97
2018-07-28T10:13:26.648Z,7.33
2018-07-28T10:15:56.059Z,6.47
2018-07-28T10:18:25.471Z,4.60
2018-07-28T10:20:54.971Z,4.70
2018-07-28T10:23:24.383Z,4.77
2018-07-28T10:25:53.778Z,4.80
2018-07-28T10:28:23.216Z,6.33
2018-07-28T10:30:54.841Z,6.30
2018-07-28T10:33:24.193Z,4.20
2018-07-28T10:35:53.566Z,5.33
2018-07-28T10:38:22.931Z,4.53
2018-07-28T10:40:52.295Z,4.90
2018-07-28T10:43:22.684Z,4.70
2018-07-28T10:45:52.049Z,20.27
2018-07-28T10:48:22.666Z,13.77
2018-07-28T10:50:52.070Z,5.03
2018-07-28T10:53:21.196Z,5.13
2018-07-28T10:55:50.468Z,3.80
2018-07-28T10:58:19.875Z,4.50
2018-07-28T11:00:49.394Z,3.80
2018-07-28T11:03:18.866Z,9.00
2018-07-28T11:05:48.395Z,5.93
2018-07-28T11:08:17.949Z,11.67
2018-07-28T11:10:47.254Z,5.60
2018-07-28T11:13:16.660Z,3.80
2018-07-28T11:15:45.948Z,5.33
2018-07-28T11:18:15.344Z,4.40
2018-07-28T11:20:44.702Z,4.20
2018-07-28T11:23:24.009Z,7.67
2018-07-28T11:25:53.400Z,6.60
2018-07-28T11:28:22.655Z,11.50
2018-07-28T11:30:51.984Z,3.33
2018-07-28T11:33:32.564Z,3.77
2018-07-28T11:36:13.041Z,2.77
2018-07-28T11:38:53.947Z,2.67
2018-07-28T11:41:34.607Z,5.73
2018-07-28T11:44:15.213Z,4.23
2018-07-28T11:46:44.536Z,3.07
2018-07-28T11:49:13.921Z,6.10
2018-07-28T11:51:43.199Z,8.93
2018-07-28T11:54:12.582Z,2.80
2018-07-28T11:56:42.385Z,2.87
2018-07-28T11:59:11.698Z,3.30
2018-07-28T12:01:43.090Z,3.67
2018-07-28T12:04:12.490Z,9.23
2018-07-28T12:06:41.959Z,3.90
2018-07-28T12:09:11.265Z,3.37
2018-07-28T12:11:40.569Z,4.00
2018-07-28T12:14:09.918Z,4.00
2018-07-28T12:16:39.262Z,3.37
2018-07-28T12:19:11.088Z,3.73
2018-07-28T12:21:40.467Z,3.77
2018-07-28T12:24:09.786Z,6.90
2018-07-28T12:26:39.125Z,8.43
2018-07-28T12:29:08.459Z,9.10
2018-07-28T12:31:37.784Z,11.73
2018-07-28T12:34:07.084Z,4.70
2018-07-28T12:36:36.470Z,4.23
2018-07-28T12:39:07.948Z,3.07
2018-07-28T12:41:37.308Z,8.27
2018-07-28T12:44:06.660Z,10.50
2018-07-28T12:46:35.997Z,3.17
2018-07-28T12:49:05.270Z,3.97
2018-07-28T12:51:34.578Z,3.70
2018-07-28T12:54:03.939Z,7.03
2018-07-28T12:56:34.233Z,5.33
2018-07-28T12:59:03.509Z,4.03
2018-07-28T13:01:32.813Z,5.40
2018-07-28T13:04:02.400Z,5.00
2018-07-28T13:06:31.643Z,3.17
2018-07-28T13:09:01.417Z,3.20
2018-07-28T13:11:31.572Z,3.30
2018-07-28T13:14:00.863Z,4.37
2018-07-28T13:16:31.430Z,2.60
2018-07-28T13:19:00.802Z,3.07
2018-07-28T13:21:31.199Z,2.93
2018-07-28T13:24:01.562Z,2.87
2018-07-28T13:26:31.059Z,4.00
2018-07-28T13:29:00.372Z,3.20
2018-07-28T13:31:31.836Z,3.03
2018-07-28T13:34:01.212Z,5.10
2018-07-28T13:36:30.814Z,4.50
2018-07-28T13:39:00.181Z,4.33
2018-07-28T13:41:29.584Z,5.43
2018-07-28T13:43:58.956Z,3.80
2018-07-28T13:46:28.331Z,7.40
2018-07-28T13:48:58.758Z,5.37
2018-07-28T13:51:28.059Z,6.30
2018-07-28T13:53:57.379Z,8.33
2018-07-28T13:56:26.908Z,5.00
2018-07-28T13:58:57.222Z,7.17
2018-07-28T14:01:26.572Z,7.57
2018-07-28T14:03:55.930Z,5.37
2018-07-28T14:06:25.325Z,5.20
2018-07-28T14:08:54.618Z,8.23
2018-07-28T14:11:23.964Z,5.70
2018-07-28T14:13:53.295Z,7.50
2018-07-28T14:16:22.586Z,14.30
2018-07-28T14:18:52.090Z,6.17
2018-07-28T14:21:21.331Z,9.53
2018-07-28T14:23:50.734Z,5.50
2018-07-28T14:26:20.091Z,6.43
2018-07-28T14:28:49.453Z,8.60
2018-07-28T14:31:18.799Z,10.20
2018-07-28T14:33:48.148Z,6.23
2018-07-28T14:36:17.506Z,7.50
2018-07-28T14:38:46.804Z,5.43
2018-07-28T14:41:16.120Z,6.23
2018-07-28T14:43:45.723Z,4.30
2018-07-28T14:46:15.093Z,5.97
2018-07-28T14:48:44.444Z,6.90
2018-07-28T14:51:13.812Z,7.90
2018-07-28T14:53:44.173Z,9.60
2018-07-28T14:56:13.504Z,5.50
2018-07-28T14:58:42.874Z,13.13
2018-07-28T15:01:12.221Z,8.50
2018-07-28T15:03:41.593Z,6.30
2018-07-28T15:06:11.223Z,5.30
2018-07-28T15:08:44.428Z,9.33
2018-07-28T15:11:13.845Z,9.43
2018-07-28T15:13:43.154Z,6.67
2018-07-28T15:16:12.512Z,6.77
2018-07-28T15:18:41.872Z,8.10
2018-07-28T15:21:11.316Z,6.17
2018-07-28T15:23:40.785Z,6.57
2018-07-28T15:26:10.369Z,9.27
2018-07-28T15:28:39.815Z,6.30
2018-07-28T15:31:09.183Z,13.93
2018-07-28T15:33:38.541Z,9.20
2018-07-28T15:36:08.722Z,8.47
2018-07-28T15:38:38.083Z,7.07
2018-07-28T15:41:07.472Z,8.50
2018-07-28T15:43:36.756Z,8.07
2018-07-28T15:46:07.258Z,9.50
2018-07-28T15:48:36.587Z,7.37
2018-07-28T15:51:05.934Z,7.20
2018-07-28T15:53:35.280Z,8.00
2018-07-28T15:56:04.653Z,6.30
2018-07-28T15:58:33.919Z,7.97
2018-07-28T16:01:03.335Z,8.13
2018-07-28T16:03:33.400Z,15.10
2018-07-28T16:06:02.780Z,12.10
2018-07-28T16:08:33.117Z,7.97
2018-07-28T16:11:02.497Z,10.27
2018-07-28T16:13:31.767Z,8.20
2018-07-28T16:16:01.037Z,10.53
2018-07-28T16:18:30.310Z,8.77
2018-07-28T16:20:59.636Z,9.50
2018-07-28T16:23:29.030Z,11.33
2018-07-28T16:25:58.355Z,9.60
2018-07-28T16:28:27.722Z,9.10
2018-07-28T16:30:56.864Z,9.07
2018-07-28T16:33:26.056Z,10.03
2018-07-28T16:35:55.414Z,11.20
2018-07-28T16:38:24.816Z,11.60
2018-07-28T16:40:54.344Z,12.00
2018-07-28T16:43:23.624Z,12.17
2018-07-28T16:45:54.070Z,13.40
2018-07-28T16:48:25.624Z,9.50
2018-07-28T16:50:55.827Z,12.43
2018-07-28T16:53:25.827Z,12.30
2018-07-28T16:55:55.470Z,14.50
2018-07-28T16:58:25.307Z,13.60
2018-07-28T17:00:55.236Z,11.00
2018-07-28T17:03:26.942Z,11.57
2018-07-28T17:05:57.773Z,7.40
2018-07-28T17:08:27.147Z,9.53
2018-07-28T17:10:56.425Z,9.97
2018-07-28T17:13:25.859Z,10.10
2018-07-28T17:15:55.194Z,9.13
2018-07-28T17:18:24.713Z,9.00
2018-07-28T17:20:54.017Z,10.93
2018-07-28T17:23:23.332Z,11.60
2018-07-28T17:25:52.693Z,8.97
2018-07-28T17:28:21.971Z,12.93
2018-07-28T17:30:51.540Z,18.70
2018-07-28T17:33:20.801Z,11.73
2018-07-28T17:35:50.229Z,8.37
2018-07-28T17:38:19.653Z,12.67
2018-07-28T17:40:49.272Z,11.67
2018-07-28T17:43:18.698Z,10.07
2018-07-28T17:45:48.203Z,10.83
2018-07-28T17:48:18.628Z,9.73
2018-07-28T17:50:50.249Z,11.40
2018-07-28T17:53:19.682Z,15.43
2018-07-28T17:55:49.023Z,14.10
2018-07-28T17:58:18.549Z,9.30
2018-07-28T18:00:47.923Z,10.87
2018-07-28T18:03:17.338Z,14.77
2018-07-28T18:05:46.739Z,9.30
2018-07-28T18:08:17.071Z,14.60
2018-07-28T18:10:46.646Z,10.00
2018-07-28T18:13:16.208Z,7.67
2018-07-28T18:15:45.567Z,9.70
2018-07-28T18:18:14.899Z,12.00
2018-07-28T18:20:44.300Z,11.77
2018-07-28T18:23:13.763Z,8.70
2018-07-28T18:25:43.139Z,12.33
2018-07-28T18:28:13.636Z,7.10
2018-07-28T18:30:43.008Z,7.23
2018-07-28T18:33:12.424Z,6.70
2018-07-28T18:35:41.743Z,9.37
2018-07-28T18:38:11.060Z,6.37
2018-07-28T18:40:41.474Z,7.03
2018-07-28T18:43:11.791Z,5.50
2018-07-28T18:45:41.216Z,6.67
2018-07-28T18:48:10.753Z,5.73
2018-07-28T18:50:42.174Z,5.73
2018-07-28T18:53:11.491Z,8.83
2018-07-28T18:55:40.841Z,5.80
2018-07-28T18:58:10.221Z,7.03
2018-07-28T19:00:39.505Z,14.23
2018-07-28T19:03:08.851Z,9.63
2018-07-28T19:05:38.212Z,7.90
2018-07-28T19:08:07.562Z,10.30
2018-07-28T19:10:36.962Z,8.00
2018-07-28T19:13:11.688Z,11.63
2018-07-28T19:15:41.640Z,8.13
2018-07-28T19:18:17.057Z,10.30
2018-07-28T19:20:46.980Z,7.00
2018-07-28T19:23:22.396Z,7.47
2018-07-28T19:25:52.484Z,7.13
2018-07-28T19:28:27.538Z,9.23
2018-07-28T19:30:58.154Z,7.73
2018-07-28T19:33:28.200Z,12.67
2018-07-28T19:36:02.684Z,21.13
2018-07-28T19:38:32.151Z,13.50
2018-07-28T19:41:01.744Z,16.13
2018-07-28T19:43:31.103Z,11.53
2018-07-28T19:46:00.431Z,15.73
2018-07-28T19:48:29.813Z,15.37
2018-07-28T19:50:59.208Z,15.03
2018-07-28T19:53:28.558Z,13.53
2018-07-28T19:55:57.845Z,14.77
2018-07-28T19:58:27.154Z,13.27
2018-07-28T20:00:58.127Z,12.47
2018-07-28T20:03:27.402Z,14.27
2018-07-28T20:05:56.733Z,13.13
2018-07-28T20:08:26.059Z,13.10
2018-07-28T20:10:55.401Z,15.80
2018-07-28T20:13:25.549Z,15.30
2018-07-28T20:15:55.772Z,13.50
2018-07-28T20:18:25.590Z,17.23
2018-07-28T20:20:55.510Z,17.23
2018-07-28T20:23:25.288Z,14.80
2018-07-28T20:25:55.457Z,12.63
2018-07-28T20:28:25.426Z,15.70
2018-07-28T20:30:55.704Z,20.10
2018-07-28T20:33:25.121Z,15.43
2018-07-28T20:35:55.166Z,15.03
2018-07-28T20:38:25.197Z,17.30
2018-07-28T20:40:55.292Z,15.30
2018-07-28T20:43:25.368Z,16.70
2018-07-28T20:45:55.204Z,19.50
2018-07-28T20:48:24.942Z,18.63
2018-07-28T20:50:54.869Z,23.27
2018-07-28T20:53:25.108Z,14.27
2018-07-28T20:55:55.153Z,18.33
2018-07-28T20:58:25.519Z,20.27
2018-07-28T21:00:55.396Z,14.83
2018-07-28T21:03:25.544Z,22.67
2018-07-28T21:05:55.421Z,20.60
2018-07-28T21:08:25.990Z,17.30
2018-07-28T21:10:56.382Z,23.33
2018-07-28T21:13:26.109Z,19.73
2018-07-28T21:15:56.382Z,22.83
2018-07-28T21:18:26.240Z,23.20
2018-07-28T21:20:55.561Z,26.23
2018-07-28T21:23:24.900Z,21.87
2018-07-28T21:25:54.143Z,25.07
2018-07-28T21:28:23.485Z,23.87
2018-07-28T21:30:52.773Z,22.87
2018-07-28T21:33:22.025Z,30.67
2018-07-28T21:35:51.423Z,21.03
2018-07-28T21:38:20.769Z,21.53
2018-07-28T21:40:50.060Z,18.67
2018-07-28T21:43:19.450Z,21.93
2018-07-28T21:45:48.764Z,16.43
2018-07-28T21:48:18.011Z,25.53
2018-07-28T21:50:47.527Z,17.63
2018-07-28T21:53:16.837Z,26.47
2018-07-28T21:55:46.210Z,24.27
2018-07-28T21:58:15.535Z,25.57
2018-07-28T22:00:51.385Z,28.63
2018-07-28T22:03:20.749Z,28.40
2018-07-28T22:05:50.061Z,31.23
2018-07-28T22:08:19.385Z,25.93
2018-07-28T22:10:48.687Z,19.43
2018-07-28T22:13:18.173Z,30.97
2018-07-28T22:15:47.503Z,22.20
2018-07-28T22:18:16.788Z,22.97
2018-07-28T22:20:46.236Z,30.57
2018-07-28T22:23:15.583Z,24.13
2018-07-28T22:25:44.920Z,28.57
2018-07-28T22:28:14.281Z,25.57
2018-07-28T22:30:43.608Z,25.77
2018-07-28T22:33:12.987Z,28.40
2018-07-28T22:35:42.365Z,28.00
2018-07-28T22:38:11.705Z,28.83
2018-07-28T22:40:41.014Z,26.43
2018-07-28T22:43:10.291Z,25.37
2018-07-28T22:45:39.578Z,20.83
2018-07-28T22:48:09.009Z,23.63
2018-07-28T22:50:38.303Z,32.70
2018-07-28T22:53:08.512Z,27.60
2018-07-28T22:55:37.805Z,28.13
2018-07-28T22:58:07.187Z,38.13
2018-07-28T23:00:36.639Z,33.60
2018-07-28T23:03:05.943Z,36.60
2018-07-28T23:05:36.297Z,31.27
2018-07-28T23:08:05.641Z,27.27
2018-07-28T23:10:35.009Z,26.53
2018-07-28T23:13:04.349Z,38.67
2018-07-28T23:15:33.693Z,26.33
2018-07-28T23:18:03.139Z,33.53
2018-07-28T23:20:32.484Z,32.03
2018-07-28T23:23:01.805Z,44.43
2018-07-28T23:25:31.341Z,28.97
2018-07-28T23:28:00.751Z,40.13
2018-07-28T23:30:30.136Z,35.20
2018-07-28T23:32:59.464Z,27.40
2018-07-28T23:35:28.900Z,27.30
2018-07-28T23:37:58.340Z,29.00
2018-07-28T23:40:27.913Z,23.17
2018-07-28T23:42:57.297Z,27.67
2018-07-28T23:45:26.771Z,28.77
2018-07-28T23:47:56.060Z,28.13
2018-07-28T23:50:25.397Z,36.80
2018-07-28T23:52:54.697Z,27.70
2018-07-28T23:55:24.048Z,22.73
2018-07-28T23:57:53.453Z,33.60
